createdAt,value
2019-03-13T07:28:11.129Z,3.45
2019-03-13T07:28:42.473Z,3.39
2019-03-13T07:29:24.642Z,3.38
2019-03-13T07:30:00.717Z,3.37
2019-03-13T07:30:39.740Z,3.37
2019-03-13T07:31:16.337Z,3.36
2019-03-13T07:31:49.403Z,3.38
2019-03-13T07:32:37.237Z,3.37
2019-03-13T07:33:10.303Z,3.37
2019-03-13T07:33:49.423Z,3.39
2019-03-13T07:34:25.109Z,3.38
2019-03-13T07:35:04.591Z,3.40
2019-03-13T07:35:37.647Z,3.40
2019-03-13T07:36:26.153Z,3.40
2019-03-13T07:37:14.162Z,3.42
2019-03-13T07:38:02.059Z,3.42
2019-03-13T07:38:43.851Z,3.44
2019-03-13T07:39:31.930Z,3.46
2019-03-13T07:40:08.466Z,3.48
2019-03-13T07:40:57.846Z,3.50
2019-03-13T07:41:36.937Z,3.51
2019-03-13T07:42:25.747Z,3.52
2019-03-13T07:43:07.808Z,3.54
2019-03-13T07:43:40.870Z,3.56
2019-03-13T07:44:26.708Z,3.57
2019-03-13T07:45:15.882Z,3.59
2019-03-13T07:45:56.006Z,3.60
2019-03-13T07:46:27.178Z,3.62
2019-03-13T07:47:00.262Z,3.66
2019-03-13T07:47:34.338Z,3.67
2019-03-13T07:48:10.315Z,3.67
2019-03-13T07:48:49.103Z,3.67
2019-03-13T07:49:37.217Z,3.68
2019-03-13T07:50:13.509Z,3.70
2019-03-13T07:50:46.628Z,3.70
2019-03-13T07:51:22.325Z,3.70
2019-03-13T07:51:54.040Z,3.72
2019-03-13T07:52:43.321Z,3.72
2019-03-13T07:53:16.457Z,3.73
2019-03-13T07:53:52.435Z,3.71
2019-03-13T07:54:40.775Z,3.71
2019-03-13T07:55:30.068Z,3.72
2019-03-13T07:56:15.149Z,3.73
2019-03-13T07:56:48.207Z,3.69
2019-03-13T07:57:21.313Z,3.73
2019-03-13T07:57:53.757Z,3.74
2019-03-13T07:58:32.839Z,3.74
2019-03-13T07:59:05.892Z,3.75
2019-03-13T07:59:47.989Z,3.74
2019-03-13T08:00:21.042Z,3.75
2019-03-13T08:00:56.766Z,3.66
2019-03-13T08:01:29.843Z,3.66
2019-03-13T08:02:01.039Z,3.77
2019-03-13T08:02:40.099Z,3.78
2019-03-13T08:03:16.039Z,3.78
2019-03-13T08:03:52.065Z,3.71
2019-03-13T08:04:28.215Z,3.79
2019-03-13T08:05:06.914Z,3.78
2019-03-13T08:05:43.918Z,3.79
2019-03-13T08:06:33.378Z,3.81
2019-03-13T08:07:12.327Z,3.81
2019-03-13T08:07:45.416Z,3.71
2019-03-13T08:08:18.493Z,3.81
2019-03-13T08:09:09.624Z,3.82
2019-03-13T08:09:59.006Z,3.81
2019-03-13T08:10:37.733Z,3.81
2019-03-13T08:11:13.683Z,3.73
2019-03-13T08:11:50.720Z,3.73
2019-03-13T08:12:24.780Z,3.85
2019-03-13T08:13:12.914Z,3.84
2019-03-13T08:14:02.260Z,3.84
2019-03-13T08:14:53.234Z,3.85
2019-03-13T08:15:35.027Z,3.86
2019-03-13T08:16:14.036Z,3.86
2019-03-13T08:16:49.952Z,3.87
2019-03-13T08:17:28.836Z,3.90
2019-03-13T08:18:10.692Z,3.92
2019-03-13T08:18:59.948Z,3.92
2019-03-13T08:19:36.884Z,3.92
2019-03-13T08:20:26.805Z,3.94
2019-03-13T08:21:11.740Z,3.98
2019-03-13T08:22:01.266Z,3.98
2019-03-13T08:22:49.299Z,3.99
2019-03-13T08:23:20.470Z,3.96
2019-03-13T08:23:53.603Z,4.03
2019-03-13T08:24:29.341Z,4.03
2019-03-13T08:25:08.402Z,4.05
2019-03-13T08:25:41.492Z,4.06
2019-03-13T08:26:24.724Z,4.06
2019-03-13T08:27:00.690Z,3.99
2019-03-13T08:27:34.775Z,3.99
2019-03-13T08:28:13.844Z,4.12
2019-03-13T08:28:49.716Z,4.12
2019-03-13T08:29:39.095Z,4.12
2019-03-13T08:30:29.316Z,4.13
2019-03-13T08:31:14.346Z,3.97
2019-03-13T08:32:04.591Z,4.17
2019-03-13T08:32:40.632Z,4.19
2019-03-13T08:33:25.709Z,4.19
2019-03-13T08:34:15.328Z,4.20
2019-03-13T08:34:54.032Z,4.22
2019-03-13T08:35:27.140Z,4.22
2019-03-13T08:36:02.906Z,4.22
2019-03-13T08:36:35.995Z,4.22
2019-03-13T08:37:22.204Z,4.23
2019-03-13T08:37:53.782Z,4.28
2019-03-13T08:38:29.464Z,4.28
2019-03-13T08:39:05.542Z,4.28
2019-03-13T08:39:52.232Z,4.29
2019-03-13T08:40:25.662Z,4.30
2019-03-13T08:41:01.557Z,4.32
2019-03-13T08:41:52.184Z,4.35
2019-03-13T08:42:37.264Z,4.35
2019-03-13T08:43:25.186Z,4.35
2019-03-13T08:44:11.079Z,4.38
2019-03-13T08:44:50.196Z,4.38
2019-03-13T08:45:23.246Z,4.37
2019-03-13T08:46:12.820Z,4.39
2019-03-13T08:46:49.573Z,4.39
2019-03-13T08:47:28.463Z,4.39
2019-03-13T08:48:02.229Z,4.41
2019-03-13T08:48:38.245Z,4.44
2019-03-13T08:49:27.843Z,4.44
2019-03-13T08:50:00.957Z,4.46
2019-03-13T08:50:38.029Z,4.49
2019-03-13T08:51:11.141Z,4.49
2019-03-13T08:51:44.186Z,4.51
2019-03-13T08:52:15.396Z,4.51
2019-03-13T08:52:51.301Z,4.54
2019-03-13T08:53:30.387Z,4.54
2019-03-13T08:54:19.302Z,4.58
2019-03-13T08:54:53.415Z,4.59
2019-03-13T08:55:32.572Z,4.63
2019-03-13T08:56:08.326Z,4.63
2019-03-13T08:56:53.456Z,4.65
2019-03-13T08:57:43.096Z,4.59
2019-03-13T08:58:22.174Z,4.72
2019-03-13T08:59:02.731Z,4.74
2019-03-13T08:59:38.342Z,4.76
2019-03-13T09:00:23.372Z,4.78
2019-03-13T09:01:00.462Z,4.81
2019-03-13T09:01:36.210Z,4.85
2019-03-13T09:02:12.096Z,4.90
2019-03-13T09:02:48.044Z,4.94
2019-03-13T09:03:25.056Z,5.01
2019-03-13T09:03:58.176Z,5.04
2019-03-13T09:04:42.069Z,5.04
2019-03-13T09:05:17.866Z,5.07
2019-03-13T09:06:02.923Z,5.14
2019-03-13T09:06:51.940Z,5.14
2019-03-13T09:07:41.864Z,5.17
2019-03-13T09:08:19.133Z,5.21
2019-03-13T09:09:08.764Z,5.26
2019-03-13T09:09:49.762Z,5.26
2019-03-13T09:10:22.977Z,5.22
2019-03-13T09:11:03.140Z,5.22
2019-03-13T09:11:40.313Z,5.38
2019-03-13T09:12:14.406Z,5.38
2019-03-13T09:12:53.343Z,5.40
2019-03-13T09:13:26.636Z,5.45
2019-03-13T09:14:02.699Z,5.37
2019-03-13T09:14:44.555Z,5.50
2019-03-13T09:15:23.265Z,5.50
2019-03-13T09:15:59.267Z,5.51
2019-03-13T09:16:38.375Z,5.50
2019-03-13T09:17:09.599Z,5.50
2019-03-13T09:17:42.779Z,5.50
2019-03-13T09:18:16.000Z,5.41
2019-03-13T09:18:50.108Z,5.52
2019-03-13T09:19:21.368Z,5.52
2019-03-13T09:19:58.376Z,5.54
2019-03-13T09:20:34.500Z,5.55
2019-03-13T09:21:05.681Z,5.58
2019-03-13T09:21:38.804Z,5.58
2019-03-13T09:22:14.721Z,5.60
2019-03-13T09:22:46.031Z,5.60
2019-03-13T09:23:22.123Z,5.60
2019-03-13T09:23:58.530Z,5.62
2019-03-13T09:24:31.576Z,5.62
2019-03-13T09:25:20.961Z,5.63
2019-03-13T09:26:12.091Z,5.63
2019-03-13T09:26:54.025Z,5.62
2019-03-13T09:27:27.172Z,5.62
2019-03-13T09:28:16.932Z,5.68
2019-03-13T09:29:05.154Z,5.68
2019-03-13T09:29:39.460Z,5.63
2019-03-13T09:30:31.572Z,5.63
2019-03-13T09:31:13.734Z,5.64
2019-03-13T09:31:47.503Z,5.72
2019-03-13T09:32:21.503Z,5.73
2019-03-13T09:32:57.416Z,5.73
2019-03-13T09:33:45.244Z,5.73
2019-03-13T09:34:18.308Z,5.71
2019-03-13T09:35:03.035Z,5.71
2019-03-13T09:35:42.030Z,5.71
2019-03-13T09:36:20.768Z,5.71
2019-03-13T09:37:10.397Z,5.71
2019-03-13T09:37:43.516Z,5.72
2019-03-13T09:38:16.573Z,5.73
2019-03-13T09:38:49.687Z,5.74
2019-03-13T09:39:22.735Z,5.74
2019-03-13T09:39:56.170Z,5.74
2019-03-13T09:40:38.193Z,5.75
2019-03-13T09:41:14.094Z,5.75
2019-03-13T09:42:03.497Z,5.75
2019-03-13T09:42:39.491Z,5.76
2019-03-13T09:43:30.583Z,5.77
2019-03-13T09:44:04.373Z,5.77
2019-03-13T09:44:37.468Z,5.76
2019-03-13T09:45:11.854Z,5.76
2019-03-13T09:45:52.141Z,5.76
2019-03-13T09:46:40.105Z,5.78
2019-03-13T09:47:29.553Z,5.79
2019-03-13T09:48:09.521Z,5.81
2019-03-13T09:48:51.197Z,5.81
2019-03-13T09:49:36.128Z,5.85
2019-03-13T09:50:26.225Z,5.85
2019-03-13T09:51:08.105Z,5.78
2019-03-13T09:51:39.272Z,5.90
2019-03-13T09:52:16.081Z,5.98
2019-03-13T09:53:05.393Z,6.01
2019-03-13T09:53:41.360Z,6.03
2019-03-13T09:54:20.110Z,6.03
2019-03-13T09:55:09.492Z,6.06
2019-03-13T09:55:59.110Z,6.11
2019-03-13T09:56:35.115Z,6.11
2019-03-13T09:57:24.487Z,6.03
2019-03-13T09:57:58.564Z,6.17
2019-03-13T09:58:29.741Z,6.14
2019-03-13T09:59:11.485Z,6.18
2019-03-13T09:59:59.545Z,6.18
2019-03-13T10:00:35.600Z,6.17
2019-03-13T10:01:23.618Z,6.07
2019-03-13T10:02:01.461Z,6.07
2019-03-13T10:02:50.987Z,6.17
2019-03-13T10:03:40.668Z,6.12
2019-03-13T10:04:19.480Z,6.17
2019-03-13T10:05:05.691Z,6.17
2019-03-13T10:05:39.756Z,6.15
2019-03-13T10:06:29.329Z,6.15
2019-03-13T10:07:08.400Z,6.13
2019-03-13T10:07:44.107Z,6.12
2019-03-13T10:08:28.997Z,6.12
2019-03-13T10:09:17.025Z,6.12
2019-03-13T10:09:50.132Z,6.02
2019-03-13T10:10:33.190Z,6.11
2019-03-13T10:11:21.060Z,6.00
2019-03-13T10:11:52.225Z,6.10
2019-03-13T10:12:41.534Z,6.10
2019-03-13T10:13:17.480Z,6.10
2019-03-13T10:13:51.414Z,6.10
2019-03-13T10:14:28.610Z,6.11
2019-03-13T10:15:05.595Z,6.11
2019-03-13T10:15:38.766Z,6.08
2019-03-13T10:16:11.919Z,6.10
2019-03-13T10:16:45.830Z,6.11
2019-03-13T10:17:18.973Z,6.01
2019-03-13T10:17:52.113Z,6.01
2019-03-13T10:18:31.244Z,6.12
2019-03-13T10:19:06.974Z,6.12
2019-03-13T10:19:45.968Z,6.02
2019-03-13T10:20:19.031Z,6.13
2019-03-13T10:20:52.145Z,6.13
2019-03-13T10:21:32.291Z,6.15
2019-03-13T10:22:14.107Z,6.16
2019-03-13T10:22:49.870Z,6.15
2019-03-13T10:23:23.180Z,6.15
2019-03-13T10:23:59.108Z,6.17
2019-03-13T10:24:37.952Z,6.18
2019-03-13T10:25:28.977Z,6.19
2019-03-13T10:26:08.125Z,6.08
2019-03-13T10:26:41.158Z,6.08
2019-03-13T10:27:23.177Z,6.18
2019-03-13T10:28:08.844Z,6.19
2019-03-13T10:28:42.032Z,6.20
2019-03-13T10:29:15.191Z,6.10
2019-03-13T10:29:53.959Z,6.20
2019-03-13T10:30:32.757Z,6.22
2019-03-13T10:31:11.514Z,6.22
2019-03-13T10:31:47.525Z,6.27
2019-03-13T10:32:30.637Z,6.28
2019-03-13T10:33:15.536Z,6.29
2019-03-13T10:33:51.308Z,6.29
2019-03-13T10:34:30.034Z,6.31
2019-03-13T10:35:15.129Z,6.33
2019-03-13T10:36:00.019Z,6.39
2019-03-13T10:36:36.051Z,6.39
2019-03-13T10:37:14.965Z,6.43
2019-03-13T10:38:12.806Z,6.43
2019-03-13T10:38:47.722Z,6.45
2019-03-13T10:39:36.955Z,6.50
2019-03-13T10:40:25.007Z,6.50
2019-03-13T10:41:12.864Z,6.45
2019-03-13T10:42:03.724Z,6.54
2019-03-13T10:42:36.905Z,6.52
2019-03-13T10:43:12.603Z,6.61
2019-03-13T10:43:48.308Z,6.61
2019-03-13T10:44:27.080Z,6.51
2019-03-13T10:45:10.228Z,6.51
2019-03-13T10:45:41.429Z,6.62
2019-03-13T10:46:14.518Z,6.62
2019-03-13T10:46:51.609Z,6.64
2019-03-13T10:47:31.790Z,6.64
2019-03-13T10:48:10.802Z,6.56
2019-03-13T10:48:45.005Z,6.66
2019-03-13T10:49:21.025Z,6.61
2019-03-13T10:50:06.057Z,6.61
2019-03-13T10:50:39.276Z,6.72
2019-03-13T10:51:22.338Z,6.72
2019-03-13T10:52:12.188Z,6.72
2019-03-13T10:52:57.308Z,6.73
2019-03-13T10:53:46.885Z,6.74
2019-03-13T10:54:37.490Z,6.72
2019-03-13T10:55:27.201Z,6.67
2019-03-13T10:56:16.918Z,6.77
2019-03-13T10:56:49.975Z,6.77
2019-03-13T10:57:24.789Z,6.80
2019-03-13T10:57:57.847Z,6.81
2019-03-13T10:58:48.685Z,6.81
2019-03-13T10:59:24.639Z,6.82
2019-03-13T10:59:58.184Z,6.76
2019-03-13T11:00:33.967Z,6.88
2019-03-13T11:01:07.073Z,6.89
2019-03-13T11:01:40.123Z,6.89
2019-03-13T11:02:18.966Z,6.89
2019-03-13T11:02:52.036Z,6.88
2019-03-13T11:03:31.040Z,6.88
2019-03-13T11:04:15.962Z,6.88
2019-03-13T11:04:56.140Z,6.92
2019-03-13T11:05:45.748Z,6.95
2019-03-13T11:06:16.936Z,6.95
2019-03-13T11:06:58.664Z,6.88
2019-03-13T11:07:31.769Z,6.88
2019-03-13T11:08:04.845Z,7.04
2019-03-13T11:08:51.127Z,7.04
2019-03-13T11:09:42.157Z,6.96
2019-03-13T11:10:20.852Z,7.08
2019-03-13T11:11:00.003Z,7.08
2019-03-13T11:11:35.927Z,7.10
2019-03-13T11:12:11.721Z,7.16
2019-03-13T11:12:48.688Z,7.16
2019-03-13T11:13:27.525Z,7.10
2019-03-13T11:13:58.721Z,7.20
2019-03-13T11:14:37.749Z,7.13
2019-03-13T11:15:11.243Z,7.27
2019-03-13T11:15:59.095Z,7.27
2019-03-13T11:16:44.016Z,7.25
2019-03-13T11:17:19.808Z,7.37
2019-03-13T11:17:53.141Z,7.38
2019-03-13T11:18:42.580Z,7.38
2019-03-13T11:19:15.694Z,7.29
2019-03-13T11:19:52.486Z,7.33
2019-03-13T11:20:26.120Z,7.33
2019-03-13T11:21:08.276Z,7.30
2019-03-13T11:21:50.046Z,7.48
2019-03-13T11:22:23.156Z,7.49
2019-03-13T11:23:09.331Z,7.48
2019-03-13T11:24:00.612Z,7.48
2019-03-13T11:24:32.413Z,7.38
2019-03-13T11:25:17.527Z,7.47
2019-03-13T11:25:56.464Z,7.49
2019-03-13T11:26:45.832Z,7.49
2019-03-13T11:27:21.799Z,7.40
2019-03-13T11:28:04.959Z,7.52
2019-03-13T11:28:42.069Z,7.52
2019-03-13T11:29:13.280Z,7.52
2019-03-13T11:29:46.429Z,7.52
2019-03-13T11:30:20.773Z,7.47
2019-03-13T11:30:54.116Z,7.52
2019-03-13T11:31:27.285Z,7.49
2019-03-13T11:32:12.379Z,7.53
2019-03-13T11:32:52.513Z,7.53
2019-03-13T11:33:34.745Z,7.45
2019-03-13T11:34:10.440Z,7.45
2019-03-13T11:34:44.264Z,7.50
2019-03-13T11:35:23.294Z,7.52
2019-03-13T11:35:55.466Z,7.52
2019-03-13T11:36:35.592Z,7.40
2019-03-13T11:37:20.806Z,7.40
2019-03-13T11:37:53.982Z,7.48
2019-03-13T11:38:43.713Z,7.48
2019-03-13T11:39:16.852Z,7.48
2019-03-13T11:40:06.351Z,7.48
2019-03-13T11:40:45.225Z,7.48
2019-03-13T11:41:34.755Z,7.51
2019-03-13T11:42:11.979Z,7.53
2019-03-13T11:42:56.185Z,7.53
2019-03-13T11:43:32.131Z,7.58
2019-03-13T11:44:10.885Z,7.60
2019-03-13T11:44:49.933Z,7.60
2019-03-13T11:45:34.773Z,7.60
2019-03-13T11:46:25.481Z,7.64
2019-03-13T11:47:16.677Z,7.64
2019-03-13T11:47:52.708Z,7.58
2019-03-13T11:48:43.801Z,7.58
2019-03-13T11:49:16.844Z,7.54
2019-03-13T11:50:06.207Z,7.59
2019-03-13T11:50:42.215Z,7.69
2019-03-13T11:51:15.338Z,7.71
2019-03-13T11:51:48.411Z,7.73
2019-03-13T11:52:34.638Z,7.73
2019-03-13T11:53:19.552Z,7.63
2019-03-13T11:53:56.684Z,7.63
2019-03-13T11:54:44.710Z,7.72
2019-03-13T11:55:21.807Z,7.70
2019-03-13T11:56:07.108Z,7.70
2019-03-13T11:56:56.405Z,7.69
2019-03-13T11:57:32.403Z,7.61
2019-03-13T11:58:09.516Z,7.66
2019-03-13T11:58:58.743Z,7.67
2019-03-13T11:59:36.024Z,7.58
2019-03-13T12:00:14.569Z,7.58
2019-03-13T12:00:50.345Z,7.71
2019-03-13T12:01:29.262Z,7.70
2019-03-13T12:02:02.410Z,7.70
2019-03-13T12:02:35.536Z,7.72
2019-03-13T12:03:11.511Z,7.63
2019-03-13T12:03:59.428Z,7.73
2019-03-13T12:04:47.585Z,7.74
2019-03-13T12:05:23.562Z,7.74
2019-03-13T12:06:00.552Z,7.75
2019-03-13T12:06:36.382Z,7.76
2019-03-13T12:07:18.454Z,7.79
2019-03-13T12:07:57.441Z,7.79
2019-03-13T12:08:42.217Z,7.79
2019-03-13T12:09:21.779Z,7.82
2019-03-13T12:09:57.730Z,7.82
2019-03-13T12:10:39.591Z,7.73
2019-03-13T12:11:29.173Z,7.83
2019-03-13T12:12:18.787Z,7.83
2019-03-13T12:12:54.585Z,7.86
2019-03-13T12:13:34.993Z,7.86
2019-03-13T12:14:12.083Z,7.86
2019-03-13T12:14:46.306Z,7.87
2019-03-13T12:15:32.472Z,7.89
2019-03-13T12:16:08.449Z,7.94
2019-03-13T12:16:44.251Z,7.88
2019-03-13T12:17:20.247Z,8.01
2019-03-13T12:17:51.411Z,7.95
2019-03-13T12:18:25.225Z,7.95
2019-03-13T12:19:04.389Z,8.08
2019-03-13T12:19:40.176Z,8.08
2019-03-13T12:20:31.051Z,8.08
2019-03-13T12:21:20.596Z,8.08
2019-03-13T12:21:56.561Z,8.08
2019-03-13T12:22:32.356Z,8.08
2019-03-13T12:23:12.184Z,8.08
2019-03-13T12:23:49.340Z,8.09
2019-03-13T12:24:22.440Z,8.10
2019-03-13T12:25:01.582Z,8.10
2019-03-13T12:25:38.470Z,8.10
2019-03-13T12:26:20.398Z,8.10
2019-03-13T12:27:09.821Z,8.04
2019-03-13T12:27:51.864Z,7.99
2019-03-13T12:28:32.802Z,8.10
2019-03-13T12:29:05.932Z,7.96
2019-03-13T12:29:37.156Z,7.96
2019-03-13T12:30:24.112Z,8.05
2019-03-13T12:31:00.110Z,8.04
2019-03-13T12:31:38.880Z,8.02
2019-03-13T12:32:10.092Z,8.00
2019-03-13T12:32:43.184Z,7.98
2019-03-13T12:33:19.163Z,7.93
2019-03-13T12:33:58.210Z,7.98
2019-03-13T12:34:47.550Z,7.99
2019-03-13T12:35:20.629Z,7.97
2019-03-13T12:36:08.473Z,7.87
2019-03-13T12:36:53.498Z,7.98
2019-03-13T12:37:42.999Z,7.98
2019-03-13T12:38:21.841Z,7.86
2019-03-13T12:38:53.134Z,7.88
2019-03-13T12:39:26.330Z,7.99
2019-03-13T12:40:06.429Z,7.99
2019-03-13T12:40:40.543Z,8.01
2019-03-13T12:41:30.253Z,8.02
2019-03-13T12:42:19.555Z,7.95
2019-03-13T12:43:04.337Z,8.04
2019-03-13T12:43:41.409Z,8.04
2019-03-13T12:44:17.401Z,8.04
2019-03-13T12:44:53.101Z,8.06
2019-03-13T12:45:29.184Z,8.06
2019-03-13T12:46:00.354Z,8.09
2019-03-13T12:46:49.672Z,8.09
2019-03-13T12:47:28.310Z,8.11
2019-03-13T12:48:07.195Z,8.12
2019-03-13T12:48:35.547Z,8.13
2019-03-13T12:49:08.770Z,8.15
2019-03-13T12:49:44.439Z,8.15
2019-03-13T12:50:20.183Z,8.17
2019-03-13T12:51:07.920Z,8.17
2019-03-13T12:51:43.983Z,8.17
2019-03-13T12:52:17.046Z,8.17
2019-03-13T12:52:50.202Z,8.17
2019-03-13T12:53:35.328Z,8.05
2019-03-13T12:54:06.552Z,8.07
2019-03-13T12:54:54.351Z,8.15
2019-03-13T12:55:27.467Z,8.16
2019-03-13T12:56:16.298Z,8.17
2019-03-13T12:57:05.644Z,8.08
2019-03-13T12:57:38.708Z,8.18
2019-03-13T12:58:15.628Z,8.18
2019-03-13T12:58:48.671Z,8.20
2019-03-13T12:59:27.716Z,8.18
2019-03-13T12:59:58.877Z,8.21
2019-03-13T13:00:31.981Z,8.23
2019-03-13T13:01:16.652Z,8.30
2019-03-13T13:01:58.477Z,8.30
2019-03-13T13:02:48.035Z,8.23
2019-03-13T13:03:33.215Z,8.37
2019-03-13T13:04:24.110Z,8.35
2019-03-13T13:05:12.242Z,8.39
2019-03-13T13:05:46.115Z,8.27
2019-03-13T13:06:38.217Z,8.34
2019-03-13T13:07:20.181Z,8.37
2019-03-13T13:07:54.089Z,8.35
2019-03-13T13:08:29.856Z,8.35
2019-03-13T13:09:19.333Z,8.35
2019-03-13T13:09:55.319Z,8.34
2019-03-13T13:10:26.569Z,8.34
2019-03-13T13:11:08.637Z,8.34
2019-03-13T13:11:44.529Z,8.34
2019-03-13T13:12:34.018Z,8.36
2019-03-13T13:13:23.378Z,8.30
2019-03-13T13:13:56.479Z,8.32
2019-03-13T13:14:29.543Z,8.43
2019-03-13T13:15:02.645Z,8.43
2019-03-13T13:15:38.664Z,8.33
2019-03-13T13:16:23.529Z,8.33
2019-03-13T13:16:57.567Z,8.32
2019-03-13T13:17:39.564Z,8.41
2019-03-13T13:18:12.640Z,8.41
2019-03-13T13:18:53.094Z,8.41
2019-03-13T13:19:24.266Z,8.41
2019-03-13T13:19:55.488Z,8.33
2019-03-13T13:20:26.651Z,8.33
2019-03-13T13:20:59.453Z,8.42
2019-03-13T13:21:30.620Z,8.41
2019-03-13T13:22:01.848Z,8.41
2019-03-13T13:22:33.189Z,8.41
2019-03-13T13:23:04.437Z,8.43
2019-03-13T13:23:35.599Z,8.43
2019-03-13T13:24:06.803Z,8.34
2019-03-13T13:24:37.952Z,8.36
2019-03-13T13:25:09.360Z,8.46
2019-03-13T13:25:40.521Z,8.38
2019-03-13T13:26:11.726Z,8.38
2019-03-13T13:26:42.876Z,8.40
2019-03-13T13:27:14.141Z,8.51
2019-03-13T13:27:45.312Z,8.51
2019-03-13T13:28:16.516Z,8.52
2019-03-13T13:28:47.664Z,8.53
2019-03-13T13:29:18.871Z,8.54
2019-03-13T13:29:50.080Z,8.48
2019-03-13T13:30:21.309Z,8.54
2019-03-13T13:30:52.538Z,8.54
2019-03-13T13:31:23.845Z,8.44
2019-03-13T13:31:55.484Z,8.56
2019-03-13T13:32:26.823Z,8.57
2019-03-13T13:32:58.089Z,8.57
2019-03-13T13:33:29.287Z,8.53
2019-03-13T13:34:00.456Z,8.58
2019-03-13T13:34:31.753Z,8.60
2019-03-13T13:35:07.039Z,8.60
2019-03-13T13:35:38.247Z,8.56
2019-03-13T13:36:09.419Z,8.66
2019-03-13T13:36:40.631Z,8.67
2019-03-13T13:37:11.788Z,8.62
2019-03-13T13:37:43.082Z,8.67
2019-03-13T13:38:14.276Z,8.67
2019-03-13T13:38:45.499Z,8.64
2019-03-13T13:39:16.753Z,8.64
2019-03-13T13:39:47.945Z,8.63
2019-03-13T13:40:19.180Z,8.61
2019-03-13T13:40:50.345Z,8.52
2019-03-13T13:41:21.542Z,8.58
2019-03-13T13:41:52.705Z,8.57
2019-03-13T13:42:23.915Z,8.56
2019-03-13T13:42:55.087Z,8.56
2019-03-13T13:43:26.310Z,8.55
2019-03-13T13:43:57.478Z,8.55
2019-03-13T13:44:28.667Z,8.55
2019-03-13T13:44:59.824Z,8.56
2019-03-13T13:45:37.890Z,8.54
2019-03-13T13:46:23.117Z,8.49
2019-03-13T13:46:54.340Z,8.57
2019-03-13T13:47:25.512Z,8.58
2019-03-13T13:47:56.780Z,8.59
2019-03-13T13:48:27.963Z,8.61
2019-03-13T13:48:59.148Z,8.61
2019-03-13T13:49:30.353Z,8.62
2019-03-13T13:50:01.541Z,8.53
2019-03-13T13:50:32.739Z,8.63
2019-03-13T13:51:03.910Z,8.63
2019-03-13T13:51:35.089Z,8.52
2019-03-13T13:52:06.332Z,8.65
2019-03-13T13:52:37.570Z,8.64
2019-03-13T13:53:08.760Z,8.64
2019-03-13T13:53:39.937Z,8.64
2019-03-13T13:54:11.229Z,8.63
2019-03-13T13:54:42.408Z,8.63
2019-03-13T13:55:13.571Z,8.63
2019-03-13T13:55:44.753Z,8.64
2019-03-13T13:56:15.937Z,8.64
2019-03-13T13:56:47.125Z,8.64
2019-03-13T13:57:18.311Z,8.64
2019-03-13T13:57:49.505Z,8.64
2019-03-13T13:58:20.753Z,8.64
2019-03-13T13:58:51.909Z,8.64
2019-03-13T13:59:24.121Z,8.63
2019-03-13T13:59:55.279Z,8.63
2019-03-13T14:00:26.763Z,8.63
2019-03-13T14:00:57.930Z,8.62
2019-03-13T14:01:30.147Z,8.61
2019-03-13T14:02:01.306Z,8.60
2019-03-13T14:02:32.519Z,8.59
2019-03-13T14:03:03.689Z,8.59
2019-03-13T14:03:34.937Z,8.52
2019-03-13T14:04:06.098Z,8.59
2019-03-13T14:04:37.289Z,8.59
2019-03-13T14:05:08.443Z,8.61
2019-03-13T14:05:41.090Z,8.71
2019-03-13T14:06:12.437Z,8.82
2019-03-13T14:06:43.653Z,8.96
2019-03-13T14:07:14.828Z,9.09
2019-03-13T14:07:46.027Z,9.24
2019-03-13T14:08:17.193Z,9.35
2019-03-13T14:08:48.390Z,9.41
2019-03-13T14:09:19.551Z,9.45
2019-03-13T14:09:50.728Z,9.46
2019-03-13T14:10:21.967Z,9.46
2019-03-13T14:10:53.490Z,9.45
2019-03-13T14:11:24.686Z,9.44
2019-03-13T14:11:56.172Z,9.44
2019-03-13T14:12:27.373Z,9.44
2019-03-13T14:12:58.638Z,9.42
2019-03-13T14:13:29.816Z,9.41
2019-03-13T14:14:01.007Z,9.45
2019-03-13T14:14:32.168Z,9.47
2019-03-13T14:15:07.380Z,9.48
2019-03-13T14:15:38.552Z,9.47
2019-03-13T14:16:09.787Z,9.46
2019-03-13T14:16:40.945Z,9.44
2019-03-13T14:17:12.147Z,9.44
2019-03-13T14:17:44.327Z,9.44
2019-03-13T14:18:15.529Z,9.45
2019-03-13T14:18:46.720Z,9.46
2019-03-13T14:19:17.968Z,9.45
2019-03-13T14:19:50.193Z,9.42
2019-03-13T14:20:21.419Z,9.38
2019-03-13T14:20:53.165Z,9.36
2019-03-13T14:21:24.429Z,9.31
2019-03-13T14:21:56.035Z,9.28
2019-03-13T14:22:27.270Z,9.23
2019-03-13T14:22:58.504Z,9.20
2019-03-13T14:23:29.747Z,9.16
2019-03-13T14:24:00.994Z,9.12
2019-03-13T14:24:32.155Z,9.11
2019-03-13T14:25:05.080Z,9.08
2019-03-13T14:25:36.239Z,9.05
2019-03-13T14:26:07.461Z,9.02
2019-03-13T14:26:38.605Z,8.98
2019-03-13T14:27:14.931Z,8.97
2019-03-13T14:27:43.882Z,8.94
2019-03-13T14:28:15.094Z,8.92
2019-03-13T14:28:47.337Z,8.89
2019-03-13T14:29:18.565Z,8.87
2019-03-13T14:29:49.728Z,8.86
2019-03-13T14:30:22.052Z,8.84
2019-03-13T14:30:53.214Z,8.82
2019-03-13T14:31:24.420Z,8.80
2019-03-13T14:31:55.589Z,8.78
2019-03-13T14:32:26.811Z,8.75
2019-03-13T14:32:57.970Z,8.74
2019-03-13T14:33:29.174Z,8.70
2019-03-13T14:34:00.338Z,8.69
2019-03-13T14:34:31.661Z,8.68
2019-03-13T14:35:03.910Z,8.65
2019-03-13T14:35:35.217Z,8.64
2019-03-13T14:36:06.372Z,8.62
2019-03-13T14:36:37.578Z,8.60
2019-03-13T14:37:08.730Z,8.60
2019-03-13T14:37:39.952Z,8.58
2019-03-13T14:38:11.103Z,8.57
2019-03-13T14:38:42.325Z,8.56
2019-03-13T14:39:13.472Z,8.55
2019-03-13T14:39:44.705Z,8.54
2019-03-13T14:40:17.660Z,8.53
2019-03-13T14:40:48.893Z,8.53
2019-03-13T14:41:20.043Z,8.46
2019-03-13T14:41:51.245Z,8.52
2019-03-13T14:42:22.414Z,8.47
2019-03-13T14:42:53.841Z,8.49
2019-03-13T14:43:24.998Z,8.50
2019-03-13T14:43:56.574Z,8.49
2019-03-13T14:44:27.751Z,8.47
2019-03-13T14:44:58.985Z,8.47
2019-03-13T14:45:30.136Z,8.45
2019-03-13T14:46:01.352Z,8.45
2019-03-13T14:46:32.507Z,8.46
2019-03-13T14:47:03.726Z,8.45
2019-03-13T14:47:34.915Z,8.44
2019-03-13T14:48:06.123Z,8.43
2019-03-13T14:48:37.277Z,8.43
2019-03-13T14:49:08.487Z,8.42
2019-03-13T14:49:39.645Z,8.42
2019-03-13T14:50:15.785Z,8.41
2019-03-13T14:50:46.942Z,8.27
2019-03-13T14:51:18.156Z,8.39
2019-03-13T14:51:49.312Z,8.38
2019-03-13T14:52:20.593Z,8.37
2019-03-13T14:52:51.780Z,8.36
2019-03-13T14:53:23.052Z,8.30
2019-03-13T14:53:54.212Z,8.34
2019-03-13T14:54:25.427Z,8.33
2019-03-13T14:54:56.579Z,8.31
2019-03-13T14:55:27.780Z,8.30
2019-03-13T14:55:58.933Z,8.28
2019-03-13T14:56:30.178Z,8.18
2019-03-13T14:57:01.502Z,8.18
2019-03-13T14:57:32.719Z,8.19
2019-03-13T14:58:03.869Z,8.15
2019-03-13T14:58:35.074Z,8.24
2019-03-13T14:59:06.221Z,8.23
2019-03-13T14:59:37.459Z,8.21
2019-03-13T15:00:23.653Z,8.23
2019-03-13T15:00:54.988Z,8.23
2019-03-13T15:01:26.592Z,8.22
2019-03-13T15:01:57.819Z,8.14
2019-03-13T15:02:29.057Z,8.21
2019-03-13T15:03:01.301Z,8.21
2019-03-13T15:03:32.530Z,8.15
2019-03-13T15:04:03.776Z,8.16
2019-03-13T15:04:35.040Z,8.20
2019-03-13T15:05:06.245Z,8.19
2019-03-13T15:05:37.456Z,8.20
2019-03-13T15:06:08.629Z,8.19
2019-03-13T15:06:39.841Z,8.19
2019-03-13T15:07:10.983Z,8.19
2019-03-13T15:07:42.186Z,8.19
2019-03-13T15:08:14.351Z,8.18
2019-03-13T15:08:45.564Z,8.18
2019-03-13T15:09:16.717Z,8.18
2019-03-13T15:09:47.939Z,8.19
2019-03-13T15:10:22.147Z,8.19
2019-03-13T15:10:53.803Z,8.18
2019-03-13T15:11:25.035Z,8.19
2019-03-13T15:11:56.595Z,8.19
2019-03-13T15:12:27.833Z,8.20
2019-03-13T15:12:59.067Z,8.21
2019-03-13T15:13:30.301Z,8.21
2019-03-13T15:14:01.544Z,8.21
2019-03-13T15:14:32.768Z,8.15
2019-03-13T15:15:08.997Z,8.21
2019-03-13T15:15:40.215Z,8.21
2019-03-13T15:16:11.378Z,8.22
2019-03-13T15:16:42.609Z,8.12
2019-03-13T15:17:13.760Z,8.21
2019-03-13T15:17:44.978Z,8.21
2019-03-13T15:18:16.128Z,8.22
2019-03-13T15:18:47.336Z,8.20
2019-03-13T15:19:18.492Z,8.20
2019-03-13T15:19:49.697Z,8.20
2019-03-13T15:20:22.660Z,8.20
2019-03-13T15:20:53.962Z,8.20
2019-03-13T15:21:25.126Z,8.20
2019-03-13T15:21:56.758Z,8.20
2019-03-13T15:22:27.931Z,8.10
2019-03-13T15:22:59.151Z,8.10
2019-03-13T15:23:30.412Z,8.19
2019-03-13T15:24:01.701Z,8.17
2019-03-13T15:24:32.854Z,8.01
2019-03-13T15:25:07.268Z,8.17
2019-03-13T15:25:38.456Z,8.08
2019-03-13T15:26:09.792Z,8.08
2019-03-13T15:26:41.049Z,8.17
2019-03-13T15:27:12.280Z,8.16
2019-03-13T15:27:43.526Z,8.07
2019-03-13T15:28:17.328Z,8.07
2019-03-13T15:28:48.020Z,8.16
2019-03-13T15:29:19.269Z,8.16
2019-03-13T15:29:50.605Z,8.16
2019-03-13T15:30:23.555Z,8.06
2019-03-13T15:30:54.778Z,8.15
2019-03-13T15:31:26.133Z,8.14
2019-03-13T15:31:57.368Z,8.13
2019-03-13T15:32:28.513Z,8.12
2019-03-13T15:32:59.737Z,8.12
2019-03-13T15:33:31.519Z,8.12
2019-03-13T15:34:02.726Z,8.12
2019-03-13T15:34:33.989Z,8.12
2019-03-13T15:35:08.887Z,8.11
2019-03-13T15:35:40.086Z,8.11
2019-03-13T15:36:11.239Z,8.11
2019-03-13T15:36:42.474Z,8.11
2019-03-13T15:37:13.637Z,8.03
2019-03-13T15:37:45.118Z,8.10
2019-03-13T15:38:16.292Z,8.10
2019-03-13T15:38:47.515Z,8.09
2019-03-13T15:39:18.692Z,8.08